sensor_id;sensor_type;location;lat;lon;timestamp;P1;durP1;ratioP1;P2;durP2;ratioP2
62947;SDS011;51940;52.126;-0.994;2022-09-09T00:00:26;9.00;;;4.30;;
62947;SDS011;51940;52.126;-0.994;2022-09-09T00:03:11;9.40;;;4.60;;
62947;SDS011;51940;52.126;-0.994;2022-09-09T00:09:10;9.30;;;3.90;;
62947;SDS011;51940;52.126;-0.994;2022-09-09T00:11:16;9.50;;;4.10;;
62947;SDS011;51940;52.126;-0.994;2022-09-09T00:13:51;9.40;;;4.00;;
62947;SDS011;51940;52.126;-0.994;2022-09-09T00:22:00;9.30;;;3.70;;
62947;SDS011;51940;52.126;-0.994;2022-09-09T00:24:55;8.60;;;3.50;;
62947;SDS011;51940;52.126;-0.994;2022-09-09T00:30:18;9.70;;;4.30;;
62947;SDS011;51940;52.126;-0.994;2022-09-09T00:32:58;8.40;;;4.10;;
62947;SDS011;51940;52.126;-0.994;2022-09-09T00:38:15;12.60;;;4.60;;
62947;SDS011;51940;52.126;-0.994;2022-09-09T00:40:52;11.20;;;4.80;;
62947;SDS011;51940;52.126;-0.994;2022-09-09T00:43:28;8.70;;;5.00;;
62947;SDS011;51940;52.126;-0.994;2022-09-09T00:54:24;9.10;;;4.80;;
62947;SDS011;51940;52.126;-0.994;2022-09-09T01:00:22;9.60;;;5.00;;
62947;SDS011;51940;52.126;-0.994;2022-09-09T01:05:39;12.00;;;4.80;;
62947;SDS011;51940;52.126;-0.994;2022-09-09T01:14:45;11.50;;;5.40;;
62947;SDS011;51940;52.126;-0.994;2022-09-09T01:22:15;7.90;;;4.60;;
62947;SDS011;51940;52.126;-0.994;2022-09-09T01:27:42;10.60;;;4.50;;
62947;SDS011;51940;52.126;-0.994;2022-09-09T01:30:11;8.90;;;4.60;;
62947;SDS011;51940;52.126;-0.994;2022-09-09T01:32:43;7.50;;;4.40;;
62947;SDS011;51940;52.126;-0.994;2022-09-09T01:35:10;8.30;;;4.60;;
62947;SDS011;51940;52.126;-0.994;2022-09-09T01:37:44;12.70;;;4.80;;
62947;SDS011;51940;52.126;-0.994;2022-09-09T01:40:10;7.30;;;4.90;;
62947;SDS011;51940;52.126;-0.994;2022-09-09T01:42:36;8.70;;;5.00;;
62947;SDS011;51940;52.126;-0.994;2022-09-09T01:45:02;9.60;;;5.10;;
62947;SDS011;51940;52.126;-0.994;2022-09-09T01:47:29;12.10;;;4.90;;
62947;SDS011;51940;52.126;-0.994;2022-09-09T01:49:54;7.30;;;4.50;;
62947;SDS011;51940;52.126;-0.994;2022-09-09T01:52:20;9.10;;;4.70;;
62947;SDS011;51940;52.126;-0.994;2022-09-09T01:54:45;7.10;;;4.60;;
62947;SDS011;51940;52.126;-0.994;2022-09-09T01:57:33;8.80;;;4.80;;
62947;SDS011;51940;52.126;-0.994;2022-09-09T02:02:32;11.30;;;4.40;;
62947;SDS011;51940;52.126;-0.994;2022-09-09T02:05:03;9.30;;;4.30;;
62947;SDS011;51940;52.126;-0.994;2022-09-09T02:07:40;12.30;;;4.60;;
62947;SDS011;51940;52.126;-0.994;2022-09-09T02:10:11;9.60;;;5.20;;
62947;SDS011;51940;52.126;-0.994;2022-09-09T02:12:56;6.90;;;4.10;;
62947;SDS011;51940;52.126;-0.994;2022-09-09T02:15:31;9.90;;;4.40;;
62947;SDS011;51940;52.126;-0.994;2022-09-09T02:18:01;10.60;;;4.70;;
62947;SDS011;51940;52.126;-0.994;2022-09-09T02:20:32;11.30;;;4.50;;
62947;SDS011;51940;52.126;-0.994;2022-09-09T02:22:59;12.20;;;4.90;;
62947;SDS011;51940;52.126;-0.994;2022-09-09T02:25:28;6.50;;;4.30;;
62947;SDS011;51940;52.126;-0.994;2022-09-09T02:27:57;11.20;;;4.80;;
62947;SDS011;51940;52.126;-0.994;2022-09-09T02:30:27;10.00;;;5.00;;
62947;SDS011;51940;52.126;-0.994;2022-09-09T02:32:55;7.40;;;4.70;;
62947;SDS011;51940;52.126;-0.994;2022-09-09T02:35:23;12.30;;;5.90;;
62947;SDS011;51940;52.126;-0.994;2022-09-09T02:37:51;11.70;;;5.60;;
62947;SDS011;51940;52.126;-0.994;2022-09-09T02:40:20;11.10;;;5.80;;
62947;SDS011;51940;52.126;-0.994;2022-09-09T02:42:47;9.90;;;6.00;;
62947;SDS011;51940;52.126;-0.994;2022-09-09T02:45:16;10.10;;;6.00;;
62947;SDS011;51940;52.126;-0.994;2022-09-09T02:51:02;12.40;;;7.00;;
62947;SDS011;51940;52.126;-0.994;2022-09-09T02:53:37;13.80;;;6.80;;
62947;SDS011;51940;52.126;-0.994;2022-09-09T02:56:12;12.40;;;6.50;;
62947;SDS011;51940;52.126;-0.994;2022-09-09T02:58:41;12.80;;;6.70;;
62947;SDS011;51940;52.126;-0.994;2022-09-09T03:01:07;14.30;;;7.20;;
62947;SDS011;51940;52.126;-0.994;2022-09-09T03:03:34;12.00;;;7.00;;
62947;SDS011;51940;52.126;-0.994;2022-09-09T03:06:00;14.40;;;6.90;;
62947;SDS011;51940;52.126;-0.994;2022-09-09T03:08:26;14.40;;;7.10;;
62947;SDS011;51940;52.126;-0.994;2022-09-09T03:10:53;18.70;;;8.50;;
62947;SDS011;51940;52.126;-0.994;2022-09-09T03:13:20;11.40;;;6.90;;
62947;SDS011;51940;52.126;-0.994;2022-09-09T03:15:45;12.20;;;6.90;;
62947;SDS011;51940;52.126;-0.994;2022-09-09T03:18:13;12.30;;;7.00;;
62947;SDS011;51940;52.126;-0.994;2022-09-09T03:20:39;16.30;;;7.50;;
62947;SDS011;51940;52.126;-0.994;2022-09-09T03:23:07;14.00;;;6.90;;
62947;SDS011;51940;52.126;-0.994;2022-09-09T03:25:32;11.20;;;7.10;;
62947;SDS011;51940;52.126;-0.994;2022-09-09T03:27:58;15.30;;;8.10;;
62947;SDS011;51940;52.126;-0.994;2022-09-09T03:30:24;9.70;;;7.00;;
62947;SDS011;51940;52.126;-0.994;2022-09-09T03:32:51;13.00;;;7.00;;
62947;SDS011;51940;52.126;-0.994;2022-09-09T03:35:17;13.40;;;7.30;;
62947;SDS011;51940;52.126;-0.994;2022-09-09T03:37:43;11.90;;;7.00;;
62947;SDS011;51940;52.126;-0.994;2022-09-09T03:40:09;15.90;;;8.00;;
62947;SDS011;51940;52.126;-0.994;2022-09-09T03:42:35;11.00;;;7.10;;
62947;SDS011;51940;52.126;-0.994;2022-09-09T03:45:02;12.10;;;7.40;;
62947;SDS011;51940;52.126;-0.994;2022-09-09T03:47:34;16.30;;;7.10;;
62947;SDS011;51940;52.126;-0.994;2022-09-09T03:49:59;11.70;;;7.00;;
62947;SDS011;51940;52.126;-0.994;2022-09-09T03:52:25;13.70;;;7.80;;
62947;SDS011;51940;52.126;-0.994;2022-09-09T03:54:51;11.60;;;7.70;;
62947;SDS011;51940;52.126;-0.994;2022-09-09T03:57:18;12.00;;;7.50;;
62947;SDS011;51940;52.126;-0.994;2022-09-09T03:59:44;11.40;;;7.20;;
62947;SDS011;51940;52.126;-0.994;2022-09-09T04:02:10;11.80;;;7.50;;
62947;SDS011;51940;52.126;-0.994;2022-09-09T04:04:35;12.50;;;7.30;;
62947;SDS011;51940;52.126;-0.994;2022-09-09T04:07:01;10.00;;;6.90;;
62947;SDS011;51940;52.126;-0.994;2022-09-09T04:09:27;11.70;;;7.20;;
62947;SDS011;51940;52.126;-0.994;2022-09-09T04:11:52;10.80;;;7.10;;
62947;SDS011;51940;52.126;-0.994;2022-09-09T04:14:18;10.60;;;7.00;;
62947;SDS011;51940;52.126;-0.994;2022-09-09T04:16:45;16.10;;;7.40;;
62947;SDS011;51940;52.126;-0.994;2022-09-09T04:19:11;11.00;;;6.50;;
62947;SDS011;51940;52.126;-0.994;2022-09-09T04:21:38;12.20;;;6.90;;
62947;SDS011;51940;52.126;-0.994;2022-09-09T04:24:05;11.40;;;6.80;;
62947;SDS011;51940;52.126;-0.994;2022-09-09T04:26:31;14.80;;;7.20;;
62947;SDS011;51940;52.126;-0.994;2022-09-09T04:28:57;12.80;;;7.40;;
62947;SDS011;51940;52.126;-0.994;2022-09-09T04:31:23;13.80;;;8.10;;
62947;SDS011;51940;52.126;-0.994;2022-09-09T04:33:49;14.50;;;8.00;;
62947;SDS011;51940;52.126;-0.994;2022-09-09T04:36:15;17.60;;;8.80;;
62947;SDS011;51940;52.126;-0.994;2022-09-09T04:38:44;16.30;;;9.10;;
62947;SDS011;51940;52.126;-0.994;2022-09-09T04:41:10;20.80;;;9.20;;
62947;SDS011;51940;52.126;-0.994;2022-09-09T04:43:36;17.70;;;8.90;;
62947;SDS011;51940;52.126;-0.994;2022-09-09T04:46:02;19.20;;;9.40;;
62947;SDS011;51940;52.126;-0.994;2022-09-09T04:48:28;18.30;;;9.80;;
62947;SDS011;51940;52.126;-0.994;2022-09-09T04:50:55;20.10;;;9.70;;
62947;SDS011;51940;52.126;-0.994;2022-09-09T04:53:26;21.40;;;10.60;;
62947;SDS011;51940;52.126;-0.994;2022-09-09T04:56:14;21.70;;;10.50;;
62947;SDS011;51940;52.126;-0.994;2022-09-09T04:58:39;20.00;;;10.40;;
62947;SDS011;51940;52.126;-0.994;2022-09-09T05:01:09;20.70;;;11.10;;
62947;SDS011;51940;52.126;-0.994;2022-09-09T05:03:36;22.40;;;10.90;;
62947;SDS011;51940;52.126;-0.994;2022-09-09T05:06:06;21.30;;;11.80;;
62947;SDS011;51940;52.126;-0.994;2022-09-09T05:08:35;20.10;;;11.20;;
62947;SDS011;51940;52.126;-0.994;2022-09-09T05:11:02;20.80;;;12.30;;
62947;SDS011;51940;52.126;-0.994;2022-09-09T05:13:28;21.90;;;11.30;;
62947;SDS011;51940;52.126;-0.994;2022-09-09T05:15:56;22.50;;;12.60;;
62947;SDS011;51940;52.126;-0.994;2022-09-09T05:18:22;24.90;;;13.50;;
62947;SDS011;51940;52.126;-0.994;2022-09-09T05:20:51;23.90;;;12.80;;
62947;SDS011;51940;52.126;-0.994;2022-09-09T05:23:17;25.10;;;13.10;;
62947;SDS011;51940;52.126;-0.994;2022-09-09T05:25:42;28.70;;;14.00;;
62947;SDS011;51940;52.126;-0.994;2022-09-09T05:28:08;25.30;;;13.30;;
62947;SDS011;51940;52.126;-0.994;2022-09-09T05:30:34;28.50;;;14.30;;
62947;SDS011;51940;52.126;-0.994;2022-09-09T05:32:59;28.70;;;13.30;;
62947;SDS011;51940;52.126;-0.994;2022-09-09T05:35:25;28.00;;;13.70;;
62947;SDS011;51940;52.126;-0.994;2022-09-09T05:37:50;33.00;;;14.30;;
62947;SDS011;51940;52.126;-0.994;2022-09-09T05:40:16;29.10;;;13.60;;
62947;SDS011;51940;52.126;-0.994;2022-09-09T05:42:41;29.70;;;13.50;;
62947;SDS011;51940;52.126;-0.994;2022-09-09T05:45:07;28.90;;;13.30;;
62947;SDS011;51940;52.126;-0.994;2022-09-09T05:47:34;28.90;;;13.30;;
62947;SDS011;51940;52.126;-0.994;2022-09-09T05:50:02;27.60;;;13.00;;
62947;SDS011;51940;52.126;-0.994;2022-09-09T05:52:29;28.60;;;13.20;;
62947;SDS011;51940;52.126;-0.994;2022-09-09T05:54:54;29.70;;;13.40;;
62947;SDS011;51940;52.126;-0.994;2022-09-09T05:57:21;26.10;;;12.50;;
62947;SDS011;51940;52.126;-0.994;2022-09-09T05:59:47;28.30;;;13.00;;
62947;SDS011;51940;52.126;-0.994;2022-09-09T06:02:13;23.10;;;12.40;;
62947;SDS011;51940;52.126;-0.994;2022-09-09T06:04:39;24.70;;;12.50;;
62947;SDS011;51940;52.126;-0.994;2022-09-09T06:07:05;26.20;;;12.70;;
62947;SDS011;51940;52.126;-0.994;2022-09-09T06:09:30;24.80;;;12.50;;
62947;SDS011;51940;52.126;-0.994;2022-09-09T06:11:56;25.30;;;13.00;;
62947;SDS011;51940;52.126;-0.994;2022-09-09T06:14:23;25.80;;;12.40;;
62947;SDS011;51940;52.126;-0.994;2022-09-09T06:16:50;24.50;;;13.30;;
62947;SDS011;51940;52.126;-0.994;2022-09-09T06:19:16;24.10;;;12.80;;
62947;SDS011;51940;52.126;-0.994;2022-09-09T06:21:42;24.60;;;13.00;;
62947;SDS011;51940;52.126;-0.994;2022-09-09T06:24:09;22.70;;;11.80;;
62947;SDS011;51940;52.126;-0.994;2022-09-09T06:26:36;24.30;;;12.70;;
62947;SDS011;51940;52.126;-0.994;2022-09-09T06:29:06;23.50;;;12.10;;
62947;SDS011;51940;52.126;-0.994;2022-09-09T06:31:33;24.40;;;13.00;;
62947;SDS011;51940;52.126;-0.994;2022-09-09T06:34:03;25.00;;;12.20;;
62947;SDS011;51940;52.126;-0.994;2022-09-09T06:36:31;22.00;;;12.10;;
62947;SDS011;51940;52.126;-0.994;2022-09-09T06:38:58;23.30;;;12.20;;
62947;SDS011;51940;52.126;-0.994;2022-09-09T06:41:26;22.80;;;11.90;;
62947;SDS011;51940;52.126;-0.994;2022-09-09T06:43:54;22.00;;;11.50;;
62947;SDS011;51940;52.126;-0.994;2022-09-09T06:46:23;20.20;;;11.60;;
62947;SDS011;51940;52.126;-0.994;2022-09-09T06:48:54;20.60;;;10.80;;
62947;SDS011;51940;52.126;-0.994;2022-09-09T06:51:21;21.00;;;10.90;;
62947;SDS011;51940;52.126;-0.994;2022-09-09T06:53:51;17.80;;;10.30;;
62947;SDS011;51940;52.126;-0.994;2022-09-09T06:56:19;22.10;;;10.80;;
62947;SDS011;51940;52.126;-0.994;2022-09-09T06:58:48;20.20;;;11.20;;
62947;SDS011;51940;52.126;-0.994;2022-09-09T07:01:19;23.80;;;11.50;;
62947;SDS011;51940;52.126;-0.994;2022-09-09T07:03:47;20.60;;;10.80;;
62947;SDS011;51940;52.126;-0.994;2022-09-09T07:06:16;22.10;;;10.80;;
62947;SDS011;51940;52.126;-0.994;2022-09-09T07:08:48;20.70;;;10.60;;
62947;SDS011;51940;52.126;-0.994;2022-09-09T07:13:51;22.20;;;11.10;;
62947;SDS011;51940;52.126;-0.994;2022-09-09T07:16:17;19.90;;;11.00;;
62947;SDS011;51940;52.126;-0.994;2022-09-09T07:18:45;19.90;;;10.10;;
62947;SDS011;51940;52.126;-0.994;2022-09-09T07:21:11;19.90;;;10.80;;
62947;SDS011;51940;52.126;-0.994;2022-09-09T07:23:38;20.40;;;10.30;;
62947;SDS011;51940;52.126;-0.994;2022-09-09T07:26:14;21.00;;;10.20;;
62947;SDS011;51940;52.126;-0.994;2022-09-09T07:28:42;22.30;;;10.10;;
62947;SDS011;51940;52.126;-0.994;2022-09-09T07:31:20;19.10;;;10.00;;
62947;SDS011;51940;52.126;-0.994;2022-09-09T07:33:49;20.50;;;10.50;;
62947;SDS011;51940;52.126;-0.994;2022-09-09T07:38:47;20.00;;;10.40;;
62947;SDS011;51940;52.126;-0.994;2022-09-09T07:41:27;20.50;;;10.80;;
62947;SDS011;51940;52.126;-0.994;2022-09-09T07:44:10;20.10;;;10.30;;
62947;SDS011;51940;52.126;-0.994;2022-09-09T07:46:37;21.50;;;10.60;;
62947;SDS011;51940;52.126;-0.994;2022-09-09T07:49:04;19.80;;;10.50;;
62947;SDS011;51940;52.126;-0.994;2022-09-09T07:51:34;18.90;;;10.10;;
62947;SDS011;51940;52.126;-0.994;2022-09-09T07:54:06;19.70;;;10.50;;
62947;SDS011;51940;52.126;-0.994;2022-09-09T07:56:34;20.40;;;10.50;;
62947;SDS011;51940;52.126;-0.994;2022-09-09T07:59:00;21.70;;;11.70;;
62947;SDS011;51940;52.126;-0.994;2022-09-09T08:04:03;24.20;;;12.20;;
62947;SDS011;51940;52.126;-0.994;2022-09-09T08:06:40;23.40;;;11.50;;
62947;SDS011;51940;52.126;-0.994;2022-09-09T08:09:07;23.20;;;11.30;;
62947;SDS011;51940;52.126;-0.994;2022-09-09T08:11:34;27.90;;;12.60;;
62947;SDS011;51940;52.126;-0.994;2022-09-09T08:14:01;28.20;;;12.90;;
62947;SDS011;51940;52.126;-0.994;2022-09-09T08:16:32;26.00;;;13.40;;
62947;SDS011;51940;52.126;-0.994;2022-09-09T08:19:01;24.80;;;12.60;;
62947;SDS011;51940;52.126;-0.994;2022-09-09T08:21:29;25.80;;;12.80;;
62947;SDS011;51940;52.126;-0.994;2022-09-09T08:23:57;24.20;;;12.10;;
62947;SDS011;51940;52.126;-0.994;2022-09-09T08:26:25;21.60;;;11.10;;
62947;SDS011;51940;52.126;-0.994;2022-09-09T08:28:53;22.50;;;11.80;;
62947;SDS011;51940;52.126;-0.994;2022-09-09T08:31:25;23.90;;;12.50;;
62947;SDS011;51940;52.126;-0.994;2022-09-09T08:34:00;20.70;;;11.40;;
62947;SDS011;51940;52.126;-0.994;2022-09-09T08:36:27;22.90;;;11.70;;
62947;SDS011;51940;52.126;-0.994;2022-09-09T08:38:55;23.60;;;12.00;;
62947;SDS011;51940;52.126;-0.994;2022-09-09T08:46:51;22.20;;;11.70;;
62947;SDS011;51940;52.126;-0.994;2022-09-09T08:52:06;18.50;;;11.60;;
62947;SDS011;51940;52.126;-0.994;2022-09-09T08:54:41;20.00;;;11.80;;
62947;SDS011;51940;52.126;-0.994;2022-09-09T08:57:09;21.40;;;12.50;;
62947;SDS011;51940;52.126;-0.994;2022-09-09T08:59:42;28.20;;;15.60;;
62947;SDS011;51940;52.126;-0.994;2022-09-09T09:12:20;14.00;;;10.00;;
62947;SDS011;51940;52.126;-0.994;2022-09-09T09:14:48;18.20;;;11.00;;
62947;SDS011;51940;52.126;-0.994;2022-09-09T09:17:17;16.30;;;10.40;;
62947;SDS011;51940;52.126;-0.994;2022-09-09T09:19:46;16.30;;;10.50;;
62947;SDS011;51940;52.126;-0.994;2022-09-09T09:30:26;11.70;;;7.70;;
62947;SDS011;51940;52.126;-0.994;2022-09-09T09:33:01;10.50;;;8.00;;
62947;SDS011;51940;52.126;-0.994;2022-09-09T09:35:31;12.60;;;8.70;;
62947;SDS011;51940;52.126;-0.994;2022-09-09T09:37:57;15.50;;;8.80;;
62947;SDS011;51940;52.126;-0.994;2022-09-09T09:40:25;11.60;;;9.00;;
62947;SDS011;51940;52.126;-0.994;2022-09-09T09:42:53;13.70;;;9.20;;
62947;SDS011;51940;52.126;-0.994;2022-09-09T09:45:32;11.70;;;8.60;;
62947;SDS011;51940;52.126;-0.994;2022-09-09T09:48:02;11.50;;;8.50;;
62947;SDS011;51940;52.126;-0.994;2022-09-09T09:50:29;10.40;;;8.40;;
62947;SDS011;51940;52.126;-0.994;2022-09-09T09:52:57;11.50;;;7.60;;
62947;SDS011;51940;52.126;-0.994;2022-09-09T09:55:32;12.50;;;8.20;;
62947;SDS011;51940;52.126;-0.994;2022-09-09T09:58:01;10.10;;;7.50;;
62947;SDS011;51940;52.126;-0.994;2022-09-09T10:00:30;10.50;;;7.00;;
62947;SDS011;51940;52.126;-0.994;2022-09-09T10:02:59;10.00;;;7.10;;
62947;SDS011;51940;52.126;-0.994;2022-09-09T10:05:26;10.70;;;7.30;;
62947;SDS011;51940;52.126;-0.994;2022-09-09T10:10:43;10.70;;;6.70;;
62947;SDS011;51940;52.126;-0.994;2022-09-09T10:26:28;8.20;;;6.40;;
62947;SDS011;51940;52.126;-0.994;2022-09-09T10:31:49;6.80;;;5.00;;
62947;SDS011;51940;52.126;-0.994;2022-09-09T10:37:45;6.20;;;4.90;;
62947;SDS011;51940;52.126;-0.994;2022-09-09T10:40:30;6.00;;;4.80;;
62947;SDS011;51940;52.126;-0.994;2022-09-09T10:43:12;7.90;;;5.10;;
62947;SDS011;51940;52.126;-0.994;2022-09-09T10:51:23;8.90;;;6.20;;
62947;SDS011;51940;52.126;-0.994;2022-09-09T10:57:21;8.80;;;5.60;;
62947;SDS011;51940;52.126;-0.994;2022-09-09T11:03:01;7.40;;;5.20;;
62947;SDS011;51940;52.126;-0.994;2022-09-09T11:05:33;9.30;;;5.90;;
62947;SDS011;51940;52.126;-0.994;2022-09-09T11:08:23;8.20;;;5.90;;
62947;SDS011;51940;52.126;-0.994;2022-09-09T11:18:55;8.40;;;5.10;;
62947;SDS011;51940;52.126;-0.994;2022-09-09T11:21:27;8.30;;;6.00;;
62947;SDS011;51940;52.126;-0.994;2022-09-09T11:24:02;9.90;;;6.00;;
62947;SDS011;51940;52.126;-0.994;2022-09-09T11:29:14;8.60;;;5.50;;
62947;SDS011;51940;52.126;-0.994;2022-09-09T11:40:36;5.80;;;4.20;;
62947;SDS011;51940;52.126;-0.994;2022-09-09T11:43:04;5.60;;;3.80;;
62947;SDS011;51940;52.126;-0.994;2022-09-09T11:45:37;6.00;;;4.30;;
62947;SDS011;51940;52.126;-0.994;2022-09-09T11:48:04;4.90;;;3.50;;
62947;SDS011;51940;52.126;-0.994;2022-09-09T11:50:36;5.10;;;3.10;;
62947;SDS011;51940;52.126;-0.994;2022-09-09T11:53:19;5.90;;;3.40;;
62947;SDS011;51940;52.126;-0.994;2022-09-09T11:55:48;4.70;;;3.40;;
62947;SDS011;51940;52.126;-0.994;2022-09-09T11:58:26;4.30;;;3.10;;
62947;SDS011;51940;52.126;-0.994;2022-09-09T12:00:57;6.10;;;3.50;;
62947;SDS011;51940;52.126;-0.994;2022-09-09T12:08:54;5.90;;;3.10;;
62947;SDS011;51940;52.126;-0.994;2022-09-09T12:11:30;5.80;;;2.80;;
62947;SDS011;51940;52.126;-0.994;2022-09-09T12:13:57;5.20;;;3.20;;
62947;SDS011;51940;52.126;-0.994;2022-09-09T12:16:29;6.20;;;3.60;;
62947;SDS011;51940;52.126;-0.994;2022-09-09T12:19:19;3.60;;;3.20;;
62947;SDS011;51940;52.126;-0.994;2022-09-09T12:21:52;7.70;;;3.40;;
62947;SDS011;51940;52.126;-0.994;2022-09-09T12:24:37;5.30;;;3.60;;
62947;SDS011;51940;52.126;-0.994;2022-09-09T12:27:13;5.70;;;3.10;;
62947;SDS011;51940;52.126;-0.994;2022-09-09T12:32:40;5.80;;;2.80;;
62947;SDS011;51940;52.126;-0.994;2022-09-09T12:35:11;3.60;;;2.30;;
62947;SDS011;51940;52.126;-0.994;2022-09-09T12:42:48;3.80;;;2.40;;
62947;SDS011;51940;52.126;-0.994;2022-09-09T12:45:18;3.10;;;2.40;;
62947;SDS011;51940;52.126;-0.994;2022-09-09T12:47:56;4.70;;;3.20;;
62947;SDS011;51940;52.126;-0.994;2022-09-09T12:50:29;6.10;;;3.20;;
62947;SDS011;51940;52.126;-0.994;2022-09-09T12:52:58;4.90;;;2.90;;
62947;SDS011;51940;52.126;-0.994;2022-09-09T12:55:35;5.90;;;2.70;;
62947;SDS011;51940;52.126;-0.994;2022-09-09T12:58:03;5.10;;;2.70;;
62947;SDS011;51940;52.126;-0.994;2022-09-09T13:00:31;4.60;;;2.50;;
62947;SDS011;51940;52.126;-0.994;2022-09-09T13:02:59;4.30;;;2.90;;
62947;SDS011;51940;52.126;-0.994;2022-09-09T13:05:27;4.30;;;2.90;;
62947;SDS011;51940;52.126;-0.994;2022-09-09T13:08:03;5.40;;;3.00;;
62947;SDS011;51940;52.126;-0.994;2022-09-09T13:10:32;4.50;;;2.90;;
62947;SDS011;51940;52.126;-0.994;2022-09-09T13:13:03;5.10;;;2.60;;
62947;SDS011;51940;52.126;-0.994;2022-09-09T13:15:30;3.30;;;1.90;;
62947;SDS011;51940;52.126;-0.994;2022-09-09T13:17:57;3.10;;;1.90;;
62947;SDS011;51940;52.126;-0.994;2022-09-09T13:20:26;2.60;;;1.80;;
62947;SDS011;51940;52.126;-0.994;2022-09-09T13:22:53;4.10;;;2.10;;
62947;SDS011;51940;52.126;-0.994;2022-09-09T13:25:27;4.80;;;2.60;;
62947;SDS011;51940;52.126;-0.994;2022-09-09T13:27:58;4.50;;;2.60;;
62947;SDS011;51940;52.126;-0.994;2022-09-09T13:30:31;5.00;;;2.80;;
62947;SDS011;51940;52.126;-0.994;2022-09-09T13:36:26;5.00;;;3.10;;
62947;SDS011;51940;52.126;-0.994;2022-09-09T13:38:32;5.30;;;2.80;;
62947;SDS011;51940;52.126;-0.994;2022-09-09T13:41:06;5.10;;;3.40;;
62947;SDS011;51940;52.126;-0.994;2022-09-09T13:43:43;3.50;;;2.60;;
62947;SDS011;51940;52.126;-0.994;2022-09-09T13:48:57;4.50;;;2.50;;
62947;SDS011;51940;52.126;-0.994;2022-09-09T13:51:29;3.90;;;3.00;;
62947;SDS011;51940;52.126;-0.994;2022-09-09T13:53:59;5.60;;;3.40;;
62947;SDS011;51940;52.126;-0.994;2022-09-09T13:56:25;4.80;;;3.70;;
62947;SDS011;51940;52.126;-0.994;2022-09-09T13:58:51;5.20;;;3.70;;
62947;SDS011;51940;52.126;-0.994;2022-09-09T14:01:17;4.70;;;3.10;;
62947;SDS011;51940;52.126;-0.994;2022-09-09T14:03:42;6.90;;;3.50;;
62947;SDS011;51940;52.126;-0.994;2022-09-09T14:06:08;4.30;;;3.00;;
62947;SDS011;51940;52.126;-0.994;2022-09-09T14:08:35;6.60;;;4.00;;
62947;SDS011;51940;52.126;-0.994;2022-09-09T14:11:04;7.90;;;3.60;;
62947;SDS011;51940;52.126;-0.994;2022-09-09T14:13:30;8.10;;;3.60;;
62947;SDS011;51940;52.126;-0.994;2022-09-09T14:15:56;6.00;;;4.00;;
62947;SDS011;51940;52.126;-0.994;2022-09-09T14:18:21;6.90;;;4.00;;
62947;SDS011;51940;52.126;-0.994;2022-09-09T14:20:48;5.10;;;3.70;;
62947;SDS011;51940;52.126;-0.994;2022-09-09T14:23:15;5.70;;;3.40;;
62947;SDS011;51940;52.126;-0.994;2022-09-09T14:25:42;4.20;;;3.70;;
62947;SDS011;51940;52.126;-0.994;2022-09-09T14:28:09;6.00;;;3.60;;
62947;SDS011;51940;52.126;-0.994;2022-09-09T14:30:37;4.80;;;3.80;;
62947;SDS011;51940;52.126;-0.994;2022-09-09T14:33:04;5.60;;;3.30;;
62947;SDS011;51940;52.126;-0.994;2022-09-09T14:35:29;5.50;;;3.60;;
62947;SDS011;51940;52.126;-0.994;2022-09-09T14:37:55;5.10;;;3.90;;
62947;SDS011;51940;52.126;-0.994;2022-09-09T14:40:21;5.50;;;3.50;;
62947;SDS011;51940;52.126;-0.994;2022-09-09T14:42:47;4.80;;;3.30;;
62947;SDS011;51940;52.126;-0.994;2022-09-09T14:45:12;4.80;;;3.60;;
62947;SDS011;51940;52.126;-0.994;2022-09-09T14:47:38;3.90;;;3.40;;
62947;SDS011;51940;52.126;-0.994;2022-09-09T14:50:04;6.90;;;3.90;;
62947;SDS011;51940;52.126;-0.994;2022-09-09T14:52:31;6.70;;;4.20;;
62947;SDS011;51940;52.126;-0.994;2022-09-09T14:54:56;6.90;;;4.60;;
62947;SDS011;51940;52.126;-0.994;2022-09-09T14:57:22;6.40;;;5.30;;
62947;SDS011;51940;52.126;-0.994;2022-09-09T14:59:47;8.90;;;5.30;;
62947;SDS011;51940;52.126;-0.994;2022-09-09T15:02:14;6.90;;;5.10;;
62947;SDS011;51940;52.126;-0.994;2022-09-09T15:04:39;6.80;;;4.70;;
62947;SDS011;51940;52.126;-0.994;2022-09-09T15:07:05;7.50;;;5.00;;
62947;SDS011;51940;52.126;-0.994;2022-09-09T15:09:30;7.70;;;5.10;;
62947;SDS011;51940;52.126;-0.994;2022-09-09T15:11:56;6.40;;;4.50;;
62947;SDS011;51940;52.126;-0.994;2022-09-09T15:14:21;10.40;;;5.90;;
62947;SDS011;51940;52.126;-0.994;2022-09-09T15:16:47;5.70;;;4.80;;
62947;SDS011;51940;52.126;-0.994;2022-09-09T15:19:12;3.80;;;3.20;;
62947;SDS011;51940;52.126;-0.994;2022-09-09T15:21:37;3.20;;;2.10;;
62947;SDS011;51940;52.126;-0.994;2022-09-09T15:24:03;2.90;;;1.40;;
62947;SDS011;51940;52.126;-0.994;2022-09-09T15:26:32;1.80;;;1.00;;
62947;SDS011;51940;52.126;-0.994;2022-09-09T15:28:57;0.90;;;0.80;;
62947;SDS011;51940;52.126;-0.994;2022-09-09T15:31:27;1.10;;;1.00;;
62947;SDS011;51940;52.126;-0.994;2022-09-09T15:33:56;1.60;;;1.00;;
62947;SDS011;51940;52.126;-0.994;2022-09-09T15:39:04;1.10;;;0.80;;
62947;SDS011;51940;52.126;-0.994;2022-09-09T15:41:32;1.10;;;0.80;;
62947;SDS011;51940;52.126;-0.994;2022-09-09T15:43:58;1.30;;;1.00;;
62947;SDS011;51940;52.126;-0.994;2022-09-09T15:48:58;1.60;;;0.70;;
62947;SDS011;51940;52.126;-0.994;2022-09-09T15:51:38;1.30;;;0.80;;
62947;SDS011;51940;52.126;-0.994;2022-09-09T15:54:06;1.30;;;0.80;;
62947;SDS011;51940;52.126;-0.994;2022-09-09T15:56:32;1.50;;;1.00;;
62947;SDS011;51940;52.126;-0.994;2022-09-09T15:58:58;2.30;;;1.20;;
62947;SDS011;51940;52.126;-0.994;2022-09-09T16:01:25;2.90;;;1.20;;
62947;SDS011;51940;52.126;-0.994;2022-09-09T16:03:51;3.00;;;1.80;;
62947;SDS011;51940;52.126;-0.994;2022-09-09T16:06:19;4.50;;;1.80;;
62947;SDS011;51940;52.126;-0.994;2022-09-09T16:08:46;2.60;;;1.90;;
62947;SDS011;51940;52.126;-0.994;2022-09-09T16:11:16;4.30;;;2.10;;
62947;SDS011;51940;52.126;-0.994;2022-09-09T16:13:47;3.50;;;2.30;;
62947;SDS011;51940;52.126;-0.994;2022-09-09T16:16:15;2.90;;;2.10;;
62947;SDS011;51940;52.126;-0.994;2022-09-09T16:18:42;2.80;;;2.60;;
62947;SDS011;51940;52.126;-0.994;2022-09-09T16:21:14;2.50;;;2.30;;
62947;SDS011;51940;52.126;-0.994;2022-09-09T16:23:41;2.80;;;2.50;;
62947;SDS011;51940;52.126;-0.994;2022-09-09T16:26:08;3.30;;;2.40;;
62947;SDS011;51940;52.126;-0.994;2022-09-09T16:28:36;5.10;;;2.40;;
62947;SDS011;51940;52.126;-0.994;2022-09-09T16:31:03;3.30;;;2.40;;
62947;SDS011;51940;52.126;-0.994;2022-09-09T16:33:33;3.30;;;2.60;;
62947;SDS011;51940;52.126;-0.994;2022-09-09T16:36:04;3.60;;;2.70;;
62947;SDS011;51940;52.126;-0.994;2022-09-09T16:38:35;3.50;;;2.50;;
62947;SDS011;51940;52.126;-0.994;2022-09-09T16:41:01;4.00;;;2.80;;
62947;SDS011;51940;52.126;-0.994;2022-09-09T16:43:31;4.60;;;2.90;;
62947;SDS011;51940;52.126;-0.994;2022-09-09T16:46:00;3.10;;;2.80;;
62947;SDS011;51940;52.126;-0.994;2022-09-09T16:48:30;4.40;;;2.90;;
62947;SDS011;51940;52.126;-0.994;2022-09-09T16:51:05;3.90;;;3.30;;
62947;SDS011;51940;52.126;-0.994;2022-09-09T16:53:32;3.00;;;2.70;;
62947;SDS011;51940;52.126;-0.994;2022-09-09T16:56:04;4.20;;;3.20;;
62947;SDS011;51940;52.126;-0.994;2022-09-09T16:58:34;3.40;;;2.90;;
62947;SDS011;51940;52.126;-0.994;2022-09-09T17:01:00;4.70;;;3.20;;
62947;SDS011;51940;52.126;-0.994;2022-09-09T17:03:29;4.20;;;3.60;;
62947;SDS011;51940;52.126;-0.994;2022-09-09T17:05:57;5.20;;;3.40;;
62947;SDS011;51940;52.126;-0.994;2022-09-09T17:08:25;5.30;;;3.60;;
62947;SDS011;51940;52.126;-0.994;2022-09-09T17:10:51;3.60;;;3.00;;
62947;SDS011;51940;52.126;-0.994;2022-09-09T17:13:16;5.40;;;2.80;;
62947;SDS011;51940;52.126;-0.994;2022-09-09T17:15:44;4.20;;;3.20;;